createdAt,value
2019-06-15T00:00:29.132Z,9.80
2019-06-15T00:02:55.860Z,6.90
2019-06-15T00:05:22.623Z,7.30
2019-06-15T00:07:49.371Z,6.23
2019-06-15T00:10:19.886Z,8.27
2019-06-15T00:12:46.607Z,4.30
2019-06-15T00:15:13.304Z,6.13
2019-06-15T00:17:40.054Z,10.37
2019-06-15T00:20:06.764Z,9.23
2019-06-15T00:22:33.673Z,4.93
2019-06-15T00:25:00.451Z,6.57
2019-06-15T00:27:27.156Z,6.40
2019-06-15T00:29:54.142Z,4.10
2019-06-15T00:32:20.901Z,5.07
2019-06-15T00:34:47.704Z,4.70
2019-06-15T00:37:14.430Z,5.00
2019-06-15T00:39:41.139Z,5.37
2019-06-15T00:42:07.877Z,6.30
2019-06-15T00:44:34.914Z,3.70
2019-06-15T00:47:01.651Z,5.80
2019-06-15T00:49:28.392Z,4.63
2019-06-15T00:51:55.146Z,3.97
2019-06-15T00:54:22.152Z,6.00
2019-06-15T00:56:48.902Z,4.03
2019-06-15T00:59:15.771Z,5.43
2019-06-15T01:01:42.502Z,5.40
2019-06-15T01:04:09.556Z,10.13
2019-06-15T01:06:36.267Z,3.83
2019-06-15T01:09:04.168Z,3.73
2019-06-15T01:11:30.948Z,4.63
2019-06-15T01:13:57.730Z,8.20
2019-06-15T01:16:24.477Z,9.27
2019-06-15T01:18:51.194Z,7.13
2019-06-15T01:21:17.942Z,5.20
2019-06-15T01:23:44.667Z,9.80
2019-06-15T01:26:11.400Z,5.53
2019-06-15T01:28:38.092Z,4.47
2019-06-15T01:31:04.846Z,9.57
2019-06-15T01:33:31.703Z,5.43
2019-06-15T01:35:58.408Z,5.40
2019-06-15T01:38:25.119Z,4.57
2019-06-15T01:40:52.006Z,5.77
2019-06-15T01:43:18.734Z,15.83
2019-06-15T01:45:45.437Z,6.60
2019-06-15T01:48:12.170Z,9.40
2019-06-15T01:50:38.899Z,3.50
2019-06-15T01:53:05.936Z,7.23
2019-06-15T01:55:32.664Z,5.70
2019-06-15T01:57:59.386Z,4.97
2019-06-15T02:00:28.356Z,7.60
2019-06-15T02:02:55.096Z,8.90
2019-06-15T02:05:22.164Z,4.43
2019-06-15T02:07:48.871Z,6.07
2019-06-15T02:10:15.864Z,6.07
2019-06-15T02:12:42.575Z,9.00
2019-06-15T02:15:09.294Z,7.10
2019-06-15T02:17:36.061Z,7.13
2019-06-15T02:20:03.369Z,5.20
2019-06-15T02:22:30.192Z,8.13
2019-06-15T02:24:56.933Z,4.30
2019-06-15T02:27:24.866Z,5.40
2019-06-15T02:29:52.086Z,4.30
2019-06-15T02:32:18.804Z,6.67
2019-06-15T02:34:45.550Z,7.60
2019-06-15T02:37:12.270Z,4.43
2019-06-15T02:39:39.373Z,7.30
2019-06-15T02:42:06.224Z,7.30
2019-06-15T02:44:32.943Z,7.50
2019-06-15T02:46:59.635Z,12.00
2019-06-15T02:49:26.344Z,9.10
2019-06-15T02:51:56.032Z,7.97
2019-06-15T02:54:23.064Z,13.23
2019-06-15T02:56:49.784Z,8.00
2019-06-15T02:59:16.521Z,6.47
2019-06-15T03:01:43.276Z,5.80
2019-06-15T03:04:10.015Z,5.20
2019-06-15T03:06:36.753Z,8.63
2019-06-15T03:09:04.906Z,5.60
2019-06-15T03:11:31.771Z,5.70
2019-06-15T03:13:58.487Z,7.83
2019-06-15T03:16:25.301Z,10.80
2019-06-15T03:18:52.020Z,7.67
2019-06-15T03:21:18.752Z,8.00
2019-06-15T03:23:45.483Z,7.10
2019-06-15T03:26:12.299Z,8.97
2019-06-15T03:28:39.159Z,5.57
2019-06-15T03:31:05.879Z,7.37
2019-06-15T03:33:32.556Z,8.10
2019-06-15T03:35:59.258Z,8.90
2019-06-15T03:38:26.014Z,5.77
2019-06-15T03:40:59.700Z,14.00
2019-06-15T03:43:22.490Z,9.57
2019-06-15T03:45:49.522Z,7.40
2019-06-15T03:48:16.299Z,8.30
2019-06-15T03:50:43.020Z,11.30
2019-06-15T03:53:09.728Z,14.83
2019-06-15T03:55:36.406Z,17.40
2019-06-15T03:58:03.324Z,15.20
2019-06-15T04:00:47.109Z,17.23
2019-06-15T04:03:13.954Z,11.73
2019-06-15T04:05:41.324Z,12.57
2019-06-15T04:08:08.086Z,10.73
2019-06-15T04:10:34.793Z,16.20
2019-06-15T04:13:01.552Z,11.50
2019-06-15T04:15:28.889Z,13.07
2019-06-15T04:17:55.665Z,13.87
2019-06-15T04:20:22.424Z,18.30
2019-06-15T04:22:49.177Z,18.13
2019-06-15T04:25:15.879Z,12.07
2019-06-15T04:27:42.586Z,12.97
2019-06-15T04:30:09.864Z,15.10
2019-06-15T04:32:36.684Z,21.03
2019-06-15T04:35:07.243Z,18.30
2019-06-15T04:37:34.057Z,16.17
2019-06-15T04:40:00.775Z,15.13
2019-06-15T04:42:27.500Z,12.87
2019-06-15T04:44:54.546Z,15.20
2019-06-15T04:47:21.388Z,12.77
2019-06-15T04:49:48.144Z,13.77
2019-06-15T04:52:14.880Z,12.97
2019-06-15T04:54:41.730Z,16.00
2019-06-15T04:57:08.462Z,14.53
2019-06-15T04:59:35.203Z,15.10
2019-06-15T05:02:02.027Z,12.30
2019-06-15T05:04:28.786Z,10.93
2019-06-15T05:06:55.464Z,12.37
2019-06-15T05:09:22.270Z,18.17
2019-06-15T05:11:48.958Z,16.20
2019-06-15T05:14:15.671Z,16.30
2019-06-15T05:16:42.651Z,16.00
2019-06-15T05:19:09.357Z,12.17
2019-06-15T05:21:36.073Z,10.87
2019-06-15T05:24:02.818Z,11.20
2019-06-15T05:26:29.549Z,11.73
2019-06-15T05:28:56.349Z,10.53
2019-06-15T05:31:23.088Z,13.50
2019-06-15T05:33:49.827Z,12.40
2019-06-15T05:36:16.533Z,15.87
2019-06-15T05:38:43.250Z,23.77
2019-06-15T05:41:09.914Z,15.23
2019-06-15T05:43:36.729Z,16.53
2019-06-15T05:46:03.452Z,13.00
2019-06-15T05:48:31.760Z,14.73
2019-06-15T05:50:58.809Z,13.90
2019-06-15T05:53:25.539Z,13.10
2019-06-15T05:55:52.583Z,11.83
2019-06-15T05:58:19.604Z,10.47
2019-06-15T06:00:46.339Z,8.70
2019-06-15T06:03:13.062Z,9.10
2019-06-15T06:05:40.130Z,8.03
2019-06-15T06:08:07.153Z,7.90
2019-06-15T06:10:33.887Z,7.37
2019-06-15T06:13:00.628Z,6.90
2019-06-15T06:15:27.602Z,6.07
2019-06-15T06:17:57.549Z,6.27
2019-06-15T06:20:24.235Z,5.70
2019-06-15T06:22:50.966Z,5.77
2019-06-15T06:25:17.683Z,4.90
2019-06-15T06:27:44.375Z,4.50
2019-06-15T06:30:11.263Z,5.93
2019-06-15T06:32:39.522Z,6.23
2019-06-15T06:35:07.142Z,8.97
2019-06-15T06:37:34.329Z,6.03
2019-06-15T06:40:01.058Z,5.20
2019-06-15T06:42:27.935Z,4.70
2019-06-15T06:44:54.679Z,5.23
2019-06-15T06:47:21.397Z,5.13
2019-06-15T06:49:48.243Z,5.20
2019-06-15T06:52:14.958Z,3.80
2019-06-15T06:54:42.036Z,3.60
2019-06-15T06:57:09.694Z,7.30
2019-06-15T06:59:36.408Z,6.40
2019-06-15T07:02:03.505Z,3.43
2019-06-15T07:04:30.382Z,5.37
2019-06-15T07:06:57.243Z,3.70
2019-06-15T07:09:24.008Z,3.10
2019-06-15T07:11:51.140Z,4.23
2019-06-15T07:14:18.199Z,6.40
2019-06-15T07:16:44.927Z,4.60
2019-06-15T07:19:11.637Z,3.77
2019-06-15T07:21:38.367Z,8.27
2019-06-15T07:24:05.366Z,5.20
2019-06-15T07:26:32.088Z,9.30
2019-06-15T07:28:58.825Z,3.17
2019-06-15T07:31:28.490Z,8.80
2019-06-15T07:33:55.320Z,6.40
2019-06-15T07:36:22.053Z,2.93
2019-06-15T07:38:51.006Z,2.20
2019-06-15T07:41:17.814Z,3.27
2019-06-15T07:43:44.887Z,4.13
2019-06-15T07:46:11.611Z,3.00
2019-06-15T07:48:38.640Z,3.20
2019-06-15T07:51:05.402Z,2.30
2019-06-15T07:53:32.121Z,4.17
2019-06-15T07:55:59.014Z,3.33
2019-06-15T07:58:25.717Z,3.27
2019-06-15T08:00:52.476Z,4.53
2019-06-15T08:03:19.216Z,4.40
2019-06-15T08:05:46.421Z,1.73
2019-06-15T08:08:13.436Z,1.60
2019-06-15T08:10:41.001Z,3.40
2019-06-15T08:13:09.095Z,9.00
2019-06-15T08:15:35.830Z,1.97
2019-06-15T08:18:02.688Z,2.23
2019-06-15T08:20:32.343Z,1.53
2019-06-15T08:22:59.078Z,1.97
2019-06-15T08:25:25.784Z,1.70
2019-06-15T08:27:52.545Z,2.47
2019-06-15T08:30:26.276Z,2.13
2019-06-15T08:32:53.021Z,1.90
2019-06-15T08:35:19.858Z,2.23
2019-06-15T08:37:46.576Z,1.60
2019-06-15T08:40:13.327Z,2.00
2019-06-15T08:42:42.873Z,1.70
2019-06-15T08:45:10.194Z,5.70
2019-06-15T08:47:37.040Z,2.17
2019-06-15T08:50:04.317Z,1.63
2019-06-15T08:52:31.016Z,3.27
2019-06-15T08:54:57.759Z,4.43
2019-06-15T08:57:24.480Z,2.00
2019-06-15T08:59:51.269Z,2.60
2019-06-15T09:02:17.933Z,2.00
2019-06-15T09:04:44.667Z,1.90
2019-06-15T09:07:11.377Z,2.93
2019-06-15T09:09:38.116Z,5.50
2019-06-15T09:12:04.805Z,2.30
2019-06-15T09:14:31.528Z,3.60
2019-06-15T09:16:58.235Z,2.00
2019-06-15T09:19:24.950Z,1.93
2019-06-15T09:21:51.625Z,2.53
2019-06-15T09:24:18.334Z,4.43
2019-06-15T09:26:46.393Z,2.50
2019-06-15T09:29:13.197Z,2.50
2019-06-15T09:31:39.899Z,2.13
2019-06-15T09:34:18.593Z,2.03
2019-06-15T09:36:35.937Z,3.63
2019-06-15T09:39:03.495Z,2.87
2019-06-15T09:41:30.263Z,1.80
2019-06-15T09:43:57.027Z,2.00
2019-06-15T09:46:23.756Z,1.70
2019-06-15T09:48:50.534Z,2.17
2019-06-15T09:51:17.370Z,1.90
2019-06-15T09:53:46.897Z,4.43
2019-06-15T09:56:14.098Z,2.27
2019-06-15T09:58:40.805Z,1.70
2019-06-15T10:01:07.520Z,3.13
2019-06-15T10:03:34.270Z,2.20
2019-06-15T10:06:00.951Z,4.40
2019-06-15T10:08:27.689Z,1.80
2019-06-15T10:10:54.433Z,2.60
2019-06-15T10:13:21.463Z,1.57
2019-06-15T10:15:48.288Z,1.67
2019-06-15T10:18:20.043Z,1.90
2019-06-15T10:20:49.196Z,1.70
2019-06-15T10:23:15.941Z,2.50
2019-06-15T10:25:42.675Z,1.93
2019-06-15T10:28:09.395Z,1.50
2019-06-15T10:30:36.112Z,1.77
2019-06-15T10:33:02.829Z,3.43
2019-06-15T10:35:29.530Z,2.70
2019-06-15T10:37:56.265Z,1.93
2019-06-15T10:40:25.859Z,1.90
2019-06-15T10:42:52.541Z,2.00
2019-06-15T10:45:19.231Z,1.70
2019-06-15T10:47:45.913Z,2.70
2019-06-15T10:50:13.807Z,1.37
2019-06-15T10:52:40.592Z,2.10
2019-06-15T10:55:07.446Z,3.07
2019-06-15T10:57:34.530Z,3.87
2019-06-15T11:00:01.318Z,1.70
2019-06-15T11:02:28.059Z,1.40
2019-06-15T11:04:54.783Z,1.70
2019-06-15T11:07:21.487Z,1.30
2019-06-15T11:09:48.212Z,1.40
2019-06-15T11:12:14.904Z,1.43
2019-06-15T11:14:41.601Z,1.40
2019-06-15T11:17:08.315Z,1.87
2019-06-15T11:19:35.039Z,1.20
2019-06-15T11:22:01.822Z,1.30
2019-06-15T11:24:28.572Z,1.70
2019-06-15T11:26:55.268Z,1.60
2019-06-15T11:29:22.282Z,1.67
2019-06-15T11:31:49.310Z,1.60
2019-06-15T11:34:16.106Z,1.97
2019-06-15T11:36:42.832Z,1.50
2019-06-15T11:39:09.550Z,1.83
2019-06-15T11:41:36.297Z,2.00
2019-06-15T11:44:03.051Z,1.87
2019-06-15T11:46:29.811Z,1.90
2019-06-15T11:48:56.516Z,2.27
2019-06-15T11:51:23.606Z,2.00
2019-06-15T11:53:50.315Z,3.27
2019-06-15T11:56:17.045Z,1.80
2019-06-15T11:58:43.739Z,2.37
2019-06-15T12:01:10.475Z,2.00
2019-06-15T12:03:37.201Z,2.00
2019-06-15T12:06:03.890Z,1.90
2019-06-15T12:08:30.590Z,2.10
2019-06-15T12:10:57.323Z,1.93
2019-06-15T12:13:24.034Z,5.43
2019-06-15T12:15:51.176Z,2.47
2019-06-15T12:18:17.913Z,5.60
2019-06-15T12:20:44.659Z,3.53
2019-06-15T12:23:11.472Z,2.67
2019-06-15T12:25:38.203Z,2.30
2019-06-15T12:28:04.911Z,5.80
2019-06-15T12:30:46.273Z,3.03
2019-06-15T12:33:04.442Z,2.30
2019-06-15T12:35:31.557Z,2.20
2019-06-15T12:37:58.252Z,2.33
2019-06-15T12:40:25.142Z,3.77
2019-06-15T12:42:52.256Z,2.00
2019-06-15T12:45:19.006Z,3.03
2019-06-15T12:47:45.816Z,2.20
2019-06-15T12:50:12.534Z,3.17
2019-06-15T12:52:39.539Z,2.43
2019-06-15T12:55:06.246Z,9.33
2019-06-15T12:57:32.941Z,1.70
2019-06-15T12:59:59.634Z,2.23
2019-06-15T13:02:26.363Z,4.13
2019-06-15T13:04:53.096Z,1.90
2019-06-15T13:07:19.834Z,2.50
2019-06-15T13:09:46.626Z,4.10
2019-06-15T13:12:13.340Z,1.90
2019-06-15T13:14:40.085Z,3.23
2019-06-15T13:17:06.805Z,3.73
2019-06-15T13:19:33.695Z,2.00
2019-06-15T13:22:00.550Z,1.60
2019-06-15T13:24:27.326Z,2.07
2019-06-15T13:26:57.193Z,2.30
2019-06-15T13:29:23.917Z,2.10
2019-06-15T13:31:50.677Z,2.20
2019-06-15T13:34:17.396Z,1.70
2019-06-15T13:36:44.144Z,2.00
2019-06-15T13:39:10.878Z,1.80
2019-06-15T13:41:37.602Z,3.40
2019-06-15T13:44:04.454Z,2.23
2019-06-15T13:46:31.181Z,3.63
2019-06-15T13:48:57.878Z,2.13
2019-06-15T13:51:24.622Z,2.80
2019-06-15T13:53:51.338Z,3.43
2019-06-15T13:56:18.044Z,3.53
2019-06-15T13:58:44.838Z,2.00
2019-06-15T14:01:11.721Z,1.93
2019-06-15T14:03:38.532Z,1.90
2019-06-15T14:06:05.833Z,3.17
2019-06-15T14:08:32.857Z,2.87
2019-06-15T14:10:59.685Z,2.10
2019-06-15T14:13:26.423Z,2.40
2019-06-15T14:15:53.161Z,2.70
2019-06-15T14:18:19.885Z,2.73
2019-06-15T14:20:47.021Z,2.43
2019-06-15T14:23:13.741Z,2.57
2019-06-15T14:25:40.470Z,2.60
2019-06-15T14:28:07.193Z,2.30
2019-06-15T14:30:34.174Z,4.70
2019-06-15T14:33:03.272Z,2.30
2019-06-15T14:35:29.962Z,2.23
2019-06-15T14:37:56.974Z,2.60
2019-06-15T14:40:23.673Z,4.47
2019-06-15T14:42:50.514Z,2.90
2019-06-15T14:45:17.537Z,2.40
2019-06-15T14:47:44.579Z,2.30
2019-06-15T14:50:11.285Z,4.20
2019-06-15T14:52:38.025Z,2.90
2019-06-15T14:55:07.034Z,3.53
2019-06-15T14:57:36.064Z,2.43
2019-06-15T15:00:05.837Z,4.40
2019-06-15T15:02:31.522Z,2.70
2019-06-15T15:04:58.277Z,2.97
2019-06-15T15:07:26.295Z,4.87
2019-06-15T15:09:53.369Z,2.57
2019-06-15T15:12:20.635Z,4.03
2019-06-15T15:14:47.641Z,3.83
2019-06-15T15:17:17.104Z,2.80
2019-06-15T15:19:43.039Z,2.60
2019-06-15T15:22:09.775Z,2.27
2019-06-15T15:24:36.475Z,3.00
2019-06-15T15:27:14.988Z,3.10
2019-06-15T15:29:49.072Z,3.07
2019-06-15T15:32:25.085Z,2.50
2019-06-15T15:34:44.407Z,3.33
2019-06-15T15:37:11.163Z,3.17
2019-06-15T15:39:38.186Z,3.37
2019-06-15T15:42:06.577Z,4.03
2019-06-15T15:44:35.987Z,5.03
2019-06-15T15:47:02.571Z,3.63
2019-06-15T15:49:29.266Z,4.00
2019-06-15T15:51:56.714Z,2.90
2019-06-15T15:54:23.536Z,4.60
2019-06-15T15:56:50.207Z,3.07
2019-06-15T15:59:16.907Z,3.60
2019-06-15T16:01:45.980Z,3.30
2019-06-15T16:04:12.232Z,6.40
2019-06-15T16:06:38.974Z,4.37
2019-06-15T16:09:06.308Z,4.47
2019-06-15T16:11:32.957Z,3.20
2019-06-15T16:13:59.755Z,3.20
2019-06-15T16:16:26.832Z,3.00
2019-06-15T16:18:56.001Z,3.67
2019-06-15T16:21:22.232Z,5.27
2019-06-15T16:23:49.004Z,3.63
2019-06-15T16:26:16.992Z,4.27
2019-06-15T16:28:45.995Z,3.80
2019-06-15T16:31:14.121Z,3.30
2019-06-15T16:33:41.505Z,2.93
2019-06-15T16:36:08.216Z,3.13
2019-06-15T16:38:36.559Z,5.40
2019-06-15T16:41:03.428Z,9.43
2019-06-15T16:43:30.440Z,7.57
2019-06-15T16:45:57.208Z,3.00
2019-06-15T16:48:26.109Z,4.77
2019-06-15T16:50:53.078Z,2.97
2019-06-15T16:53:19.788Z,3.50
2019-06-15T16:55:46.935Z,4.83
2019-06-15T16:58:15.984Z,3.40
2019-06-15T17:00:42.391Z,2.70
2019-06-15T17:03:21.054Z,3.70
2019-06-15T17:05:38.044Z,3.43
2019-06-15T17:08:07.030Z,5.23
2019-06-15T17:10:39.648Z,4.80
2019-06-15T17:13:06.750Z,4.37
2019-06-15T17:15:33.689Z,8.07
2019-06-15T17:18:00.391Z,4.97
2019-06-15T17:20:31.449Z,4.33
2019-06-15T17:22:58.632Z,3.73
2019-06-15T17:25:27.002Z,11.23
2019-06-15T17:27:56.183Z,6.67
2019-06-15T17:30:22.583Z,4.97
2019-06-15T17:32:49.345Z,8.20
2019-06-15T17:35:16.933Z,3.83
2019-06-15T17:37:43.894Z,4.10
2019-06-15T17:40:10.596Z,3.30
2019-06-15T17:42:38.534Z,3.93
2019-06-15T17:45:06.691Z,4.17
2019-06-15T17:47:33.752Z,4.17
2019-06-15T17:50:00.469Z,4.10
2019-06-15T17:52:27.206Z,4.40
2019-06-15T17:54:56.092Z,3.97
2019-06-15T17:57:22.667Z,6.10
2019-06-15T17:59:49.402Z,10.03
2019-06-15T18:02:17.127Z,4.33
2019-06-15T18:04:44.083Z,9.00
2019-06-15T18:07:20.405Z,3.63
2019-06-15T18:09:47.115Z,2.73
2019-06-15T18:12:16.866Z,6.00
2019-06-15T18:14:46.228Z,3.50
2019-06-15T18:17:12.235Z,3.77
2019-06-15T18:19:38.983Z,3.33
2019-06-15T18:22:20.372Z,4.87
2019-06-15T18:24:51.277Z,7.70
2019-06-15T18:27:21.919Z,8.87
2019-06-15T18:29:48.847Z,6.67
2019-06-15T18:32:17.118Z,5.00
2019-06-15T18:34:46.318Z,5.30
2019-06-15T18:37:12.742Z,6.20
2019-06-15T18:39:39.781Z,8.40
2019-06-15T18:42:07.744Z,3.20
2019-06-15T18:44:36.641Z,6.33
2019-06-15T18:47:03.700Z,3.90
2019-06-15T18:49:31.932Z,3.23
2019-06-15T18:51:59.023Z,3.60
2019-06-15T18:54:26.868Z,6.83
2019-06-15T18:56:53.756Z,8.40
2019-06-15T18:59:20.557Z,3.50
2019-06-15T19:01:47.395Z,3.37
2019-06-15T19:04:30.103Z,4.90
2019-06-15T19:06:46.736Z,4.63
2019-06-15T19:09:17.437Z,6.40
2019-06-15T19:11:49.776Z,5.43
2019-06-15T19:14:16.727Z,8.30
2019-06-15T19:16:43.448Z,8.93
2019-06-15T19:19:10.159Z,4.10
2019-06-15T19:21:36.893Z,4.43
2019-06-15T19:24:07.285Z,10.30
2019-06-15T19:26:37.576Z,5.83
2019-06-15T19:29:06.552Z,9.93
2019-06-15T19:31:36.592Z,8.10
2019-06-15T19:34:02.780Z,5.20
2019-06-15T19:36:43.760Z,7.57
2019-06-15T19:39:10.486Z,4.67
2019-06-15T19:41:38.100Z,6.40
2019-06-15T19:44:10.187Z,4.87
2019-06-15T19:46:37.113Z,4.67
2019-06-15T19:49:06.202Z,4.03
2019-06-15T19:51:32.578Z,4.07
2019-06-15T19:53:59.315Z,8.43
2019-06-15T19:56:26.154Z,4.60
2019-06-15T19:58:52.879Z,7.23
2019-06-15T20:01:19.590Z,4.87
2019-06-15T20:03:46.585Z,4.20
2019-06-15T20:06:16.804Z,5.17
2019-06-15T20:08:42.767Z,4.50
2019-06-15T20:11:09.500Z,5.30
2019-06-15T20:13:37.278Z,4.90
2019-06-15T20:16:05.281Z,8.17
2019-06-15T20:18:32.850Z,4.40
2019-06-15T20:20:59.551Z,3.93
2019-06-15T20:23:28.895Z,6.30
2019-06-15T20:25:55.909Z,6.47
2019-06-15T20:28:23.153Z,3.80
2019-06-15T20:30:49.885Z,5.50
2019-06-15T20:33:16.924Z,4.63
2019-06-15T20:35:46.899Z,4.33
2019-06-15T20:38:16.075Z,4.43
2019-06-15T20:40:43.789Z,4.13
2019-06-15T20:43:10.716Z,4.53
2019-06-15T20:45:37.976Z,5.50
2019-06-15T20:48:06.846Z,4.40
2019-06-15T20:50:36.076Z,5.53
2019-06-15T20:53:06.083Z,5.07
2019-06-15T20:55:32.591Z,5.30
2019-06-15T20:58:01.163Z,5.13
2019-06-15T21:00:27.883Z,8.23
2019-06-15T21:03:06.766Z,4.20
2019-06-15T21:05:41.128Z,4.50
2019-06-15T21:08:06.851Z,4.67
2019-06-15T21:10:33.942Z,6.40
2019-06-15T21:13:13.589Z,5.47
2019-06-15T21:15:44.229Z,5.17
2019-06-15T21:18:11.053Z,4.80
2019-06-15T21:20:43.453Z,6.40
2019-06-15T21:23:10.165Z,4.97
2019-06-15T21:25:36.985Z,9.07
2019-06-15T21:28:06.513Z,5.40
2019-06-15T21:30:32.660Z,5.93
2019-06-15T21:32:59.356Z,5.10
2019-06-15T21:35:26.769Z,4.73
2019-06-15T21:37:57.230Z,5.90
2019-06-15T21:40:28.198Z,5.90
2019-06-15T21:42:56.249Z,4.77
2019-06-15T21:45:23.271Z,8.10
2019-06-15T21:47:50.004Z,5.77
2019-06-15T21:50:16.726Z,5.40
2019-06-15T21:52:45.820Z,6.33
2019-06-15T21:55:12.141Z,8.23
2019-06-15T21:57:38.903Z,6.40
2019-06-15T22:00:07.651Z,7.33
2019-06-15T22:02:36.339Z,7.37
2019-06-15T22:05:03.418Z,6.67
2019-06-15T22:07:30.123Z,8.57
2019-06-15T22:09:56.831Z,5.30
2019-06-15T22:15:06.750Z,7.63
2019-06-15T22:17:33.132Z,5.53
2019-06-15T22:20:00.187Z,7.60
2019-06-15T22:22:28.100Z,9.27
2019-06-15T22:24:56.051Z,7.93
2019-06-15T22:27:22.799Z,8.33
2019-06-15T22:29:49.506Z,9.33
2019-06-15T22:32:16.630Z,5.53
2019-06-15T22:34:43.564Z,7.40
2019-06-15T22:37:10.260Z,6.73
2019-06-15T22:39:37.264Z,5.40
2019-06-15T22:42:06.692Z,5.10
2019-06-15T22:44:32.695Z,7.30
2019-06-15T22:46:59.400Z,5.40
2019-06-15T22:49:26.140Z,9.80
2019-06-15T22:51:52.948Z,5.23
2019-06-15T22:54:19.652Z,6.47
2019-06-15T22:56:46.848Z,5.27
2019-06-15T22:59:14.005Z,4.43
2019-06-15T23:01:40.735Z,4.50
2019-06-15T23:04:12.762Z,5.10
2019-06-15T23:06:42.937Z,4.23
2019-06-15T23:09:08.094Z,5.30
2019-06-15T23:11:35.955Z,4.30
2019-06-15T23:14:02.830Z,4.50
2019-06-15T23:16:29.566Z,5.20
2019-06-15T23:18:57.120Z,4.83
2019-06-15T23:21:26.582Z,5.93
2019-06-15T23:23:52.701Z,5.53
2019-06-15T23:26:19.429Z,4.57
2019-06-15T23:28:46.728Z,5.13
2019-06-15T23:31:13.687Z,4.07
2019-06-15T23:33:40.401Z,4.20
2019-06-15T23:36:12.418Z,6.77
2019-06-15T23:38:39.655Z,4.87
2019-06-15T23:41:06.960Z,5.30
2019-06-15T23:43:36.081Z,7.30
2019-06-15T23:46:02.442Z,6.27
2019-06-15T23:48:29.141Z,8.73
2019-06-15T23:50:56.949Z,6.80
2019-06-15T23:53:25.927Z,4.30
2019-06-15T23:55:52.526Z,4.40
2019-06-15T23:58:19.269Z,4.67
